Time;durP1;ratioP1;P1;durP2;ratioP2;P2;SDS_P1;SDS_P2;PMS_P1;PMS_P2;Temp;Humidity;BMP_temperature;BMP_pressure;BME280_temperature;BME280_humidity;BME280_pressure;Samples;Min_cycle;Max_cycle;Signal;HPM_P1;HPM_P2
2021/03/07 00:02:21;;;;;;;170.23;161.40;;;-3.30;99.90;;;;;;6185695;23;20253;-83
2021/03/07 00:04:57;;;;;;;;;;;;;;;;;;;;;
2021/03/07 00:07:25;;;;;;;193.25;183.88;;;-3.30;99.90;;;;;;6183877;23;20177;-83
2021/03/07 00:10:01;;;;;;;183.77;173.77;;;-3.20;99.90;;;;;;6185782;23;20158;-83
2021/03/07 00:12:31;;;;;;;201.63;190.43;;;-3.30;99.90;;;;;;6195566;23;20149;-83
2021/03/07 00:15:14;;;;;;;209.65;197.75;;;-3.20;99.90;;;;;;6185506;23;20161;-82
2021/03/07 00:17:40;;;;;;;212.43;200.57;;;-3.10;99.90;;;;;;6138365;23;20257;-83
2021/03/07 00:20:12;;;;;;;218.88;207.25;;;-3.10;99.90;;;;;;6185418;23;20157;-83
2021/03/07 00:22:39;;;;;;;221.77;209.77;;;-3.00;99.90;;;;;;6194197;23;20154;-83
2021/03/07 00:25:20;;;;;;;221.38;209.43;;;-2.90;99.90;;;;;;6195365;23;20236;-83
2021/03/07 00:27:48;;;;;;;231.13;218.32;;;-2.80;99.90;;;;;;6185108;23;20159;-83
2021/03/07 00:30:18;;;;;;;233.27;220.82;;;-2.60;99.90;;;;;;6194890;23;20621;-83
2021/03/07 00:32:47;;;;;;;226.70;214.50;;;-2.70;99.90;;;;;;6195675;23;20233;-83
2021/03/07 00:35:17;;;;;;;224.38;212.07;;;-2.70;99.90;;;;;;6195251;23;20157;-82
2021/03/07 00:37:48;;;;;;;238.20;225.95;;;-2.70;99.90;;;;;;6183434;23;20196;-83
2021/03/07 00:40:18;;;;;;;229.80;218.07;;;-2.70;99.90;;;;;;6185291;23;20181;-83
2021/03/07 00:42:48;;;;;;;236.88;225.38;;;-2.70;99.90;;;;;;6195505;23;20158;-82
2021/03/07 00:45:18;;;;;;;241.30;229.63;;;-2.80;99.90;;;;;;6195065;23;20876;-82
2021/03/07 00:47:46;;;;;;;235.50;223.48;;;-2.80;99.90;;;;;;6195112;23;20162;-83
2021/03/07 00:50:15;;;;;;;242.40;229.90;;;-2.80;99.90;;;;;;6195118;23;20606;-83
2021/03/07 00:52:41;;;;;;;176.48;166.88;;;-2.90;99.90;;;;;;6193510;23;20154;-82
2021/03/07 00:55:08;;;;;;;162.02;152.02;;;-2.90;99.90;;;;;;6185629;23;20158;-83
2021/03/07 00:57:35;;;;;;;149.25;139.95;;;-2.80;99.90;;;;;;6185480;23;20158;-83
2021/03/07 01:00:02;;;;;;;148.52;139.65;;;-2.80;99.90;;;;;;6194873;23;20667;-83
2021/03/07 01:02:31;;;;;;;166.07;154.82;;;-2.80;99.90;;;;;;6185404;23;20165;-83
2021/03/07 01:05:00;;;;;;;153.35;144.45;;;-2.70;99.90;;;;;;6184782;23;20617;-82
2021/03/07 01:07:26;;;;;;;146.98;138.18;;;-2.80;99.90;;;;;;6183889;23;20248;-83
2021/03/07 01:09:53;;;;;;;153.30;143.95;;;-2.90;99.90;;;;;;6195054;23;20169;-83
2021/03/07 01:12:19;;;;;;;153.63;144.38;;;-2.90;99.90;;;;;;6185333;23;20155;-83
2021/03/07 01:14:45;;;;;;;151.25;142.57;;;-3.00;99.90;;;;;;6185435;23;20159;-82
2021/03/07 01:17:13;;;;;;;152.77;142.95;;;-3.00;99.90;;;;;;6185161;23;20281;-82
2021/03/07 01:19:44;;;;;;;146.00;136.95;;;-3.00;99.90;;;;;;6194680;23;20189;-82
2021/03/07 01:22:18;;;;;;;156.07;147.00;;;-3.00;99.90;;;;;;6184022;23;20168;-83
2021/03/07 01:24:44;;;;;;;143.65;134.00;;;-2.90;99.90;;;;;;6195453;23;20158;-82
2021/03/07 01:27:10;;;;;;;149.98;140.52;;;-3.00;99.90;;;;;;6195443;23;20228;-83
2021/03/07 01:29:41;;;;;;;157.38;148.05;;;-3.20;99.90;;;;;;6184808;23;20237;-82
2021/03/07 01:32:18;;;;;;;;;;;;;;;;;;;;;
2021/03/07 01:34:45;;;;;;;150.98;141.15;;;-3.10;99.90;;;;;;6192544;23;20166;-82
2021/03/07 01:37:15;;;;;;;142.10;133.07;;;-3.10;99.90;;;;;;6185774;23;20201;-82
2021/03/07 01:39:44;;;;;;;143.55;135.00;;;-3.20;99.90;;;;;;6186441;23;20598;-82
2021/03/07 01:42:17;;;;;;;160.27;151.18;;;-3.40;99.90;;;;;;6187029;23;20177;-82
2021/03/07 01:44:43;;;;;;;157.23;147.85;;;-3.30;99.90;;;;;;6196420;23;20165;-82
2021/03/07 01:47:15;;;;;;;156.52;146.85;;;-3.20;99.90;;;;;;6196648;23;20154;-83
2021/03/07 01:49:43;;;;;;;158.55;149.25;;;-3.30;99.90;;;;;;6196594;23;20211;-81
2021/03/07 01:52:25;;;;;;;159.43;150.40;;;-3.30;99.90;;;;;;6185491;23;20154;-82
2021/03/07 01:54:53;;;;;;;162.15;152.50;;;-3.30;99.90;;;;;;6186835;23;20249;-82
2021/03/07 01:57:27;;;;;;;151.73;142.07;;;-3.50;99.90;;;;;;6196671;23;20157;-82
2021/03/07 01:59:58;;;;;;;148.35;139.32;;;-3.40;99.90;;;;;;6186414;23;20791;-83
2021/03/07 02:02:24;;;;;;;152.35;142.77;;;-3.40;99.90;;;;;;6186707;23;20165;-83
2021/03/07 02:04:51;;;;;;;153.60;143.50;;;-3.50;99.90;;;;;;6186805;23;20158;-82
2021/03/07 02:07:19;;;;;;;156.30;146.32;;;-3.30;99.90;;;;;;6185205;23;20158;-83
2021/03/07 02:09:52;;;;;;;154.63;144.68;;;-3.30;99.90;;;;;;6196509;23;20606;-83
2021/03/07 02:12:20;;;;;;;148.38;138.55;;;-3.40;99.90;;;;;;6196798;23;20160;-83
2021/03/07 02:14:50;;;;;;;152.13;142.38;;;-3.30;99.90;;;;;;6196345;23;20173;-83
2021/03/07 02:17:17;;;;;;;160.27;150.20;;;-3.40;99.90;;;;;;6119748;23;20173;-83
2021/03/07 02:19:57;;;;;;;;;;;;;;;;;;;;;
2021/03/07 02:22:34;;;;;;;156.18;146.73;;;-3.50;99.90;;;;;;6194962;23;20481;-82
2021/03/07 02:25:06;;;;;;;150.93;141.32;;;-3.60;99.90;;;;;;6196565;23;20157;-82
2021/03/07 02:27:34;;;;;;;154.63;144.85;;;-3.60;99.90;;;;;;6186273;23;20733;-82
2021/03/07 02:30:03;;;;;;;153.82;144.30;;;-3.60;99.90;;;;;;6186505;23;20377;-83
2021/03/07 02:32:34;;;;;;;152.77;143.85;;;-3.60;99.90;;;;;;6186585;23;20154;-82
2021/03/07 02:35:08;;;;;;;155.93;147.10;;;-3.70;99.90;;;;;;6186483;23;20162;-82
2021/03/07 02:37:42;;;;;;;149.75;140.50;;;-3.70;99.90;;;;;;6185044;23;20184;-82
2021/03/07 02:40:17;;;;;;;150.50;141.35;;;-3.70;99.90;;;;;;6186401;23;20186;-83
2021/03/07 02:42:48;;;;;;;155.95;146.48;;;-3.60;99.90;;;;;;6186396;23;20158;-82
2021/03/07 02:45:19;;;;;;;152.93;143.77;;;-3.80;99.90;;;;;;6196183;23;20154;-82
2021/03/07 02:47:51;;;;;;;146.68;137.68;;;-3.70;99.90;;;;;;6187975;23;20161;-83
2021/03/07 02:50:21;;;;;;;146.05;137.13;;;-3.70;99.90;;;;;;6196003;23;20170;-82
2021/03/07 02:52:53;;;;;;;155.30;145.57;;;-3.90;99.90;;;;;;6184995;23;20154;-82
2021/03/07 02:55:25;;;;;;;149.65;140.77;;;-3.90;99.90;;;;;;6195988;23;20618;-82
2021/03/07 02:57:57;;;;;;;154.57;145.10;;;-3.90;99.90;;;;;;6185928;23;20204;-82
2021/03/07 03:00:24;;;;;;;166.95;156.88;;;-3.90;99.90;;;;;;6186114;23;20466;-82
2021/03/07 03:02:55;;;;;;;152.77;143.10;;;-3.90;99.90;;;;;;6186426;23;20158;-82
2021/03/07 03:05:22;;;;;;;153.90;144.27;;;-3.90;99.90;;;;;;6195901;23;20176;-82
2021/03/07 03:07:52;;;;;;;158.05;148.73;;;-3.80;99.90;;;;;;6185201;23;20161;-82
2021/03/07 03:10:22;;;;;;;153.93;144.52;;;-3.90;99.90;;;;;;6195834;23;20575;-82
2021/03/07 03:12:50;;;;;;;162.65;151.93;;;-3.90;99.90;;;;;;6195806;23;20550;-82
2021/03/07 03:15:19;;;;;;;167.32;156.68;;;-4.00;99.90;;;;;;6195792;23;20220;-82
2021/03/07 03:17:50;;;;;;;159.75;149.90;;;-4.00;99.90;;;;;;6195748;23;20162;-82
2021/03/07 03:20:20;;;;;;;170.70;160.05;;;-4.00;99.90;;;;;;6195424;23;20200;-82
2021/03/07 03:23:01;;;;;;;158.23;148.10;;;-3.90;99.90;;;;;;6184424;23;20164;-82
2021/03/07 03:25:29;;;;;;;152.63;143.18;;;-4.10;99.90;;;;;;6196095;23;20161;-82
2021/03/07 03:27:56;;;;;;;154.70;145.30;;;-4.00;99.90;;;;;;6195868;23;20162;-82
2021/03/07 03:30:24;;;;;;;157.13;147.10;;;-3.90;99.90;;;;;;6185822;23;20209;-82
2021/03/07 03:32:53;;;;;;;162.05;151.63;;;-3.90;99.90;;;;;;6195889;23;20248;-83
2021/03/07 03:35:20;;;;;;;159.73;150.27;;;-3.70;99.90;;;;;;6195775;23;20161;-81
2021/03/07 03:37:50;;;;;;;160.35;150.38;;;-3.70;99.90;;;;;;6194311;23;20194;-83
2021/03/07 03:40:21;;;;;;;154.98;145.20;;;-3.80;99.90;;;;;;6195575;23;20194;-83
2021/03/07 03:42:53;;;;;;;168.35;157.40;;;-3.80;99.90;;;;;;6185951;23;20158;-82
2021/03/07 03:45:20;;;;;;;150.10;140.40;;;-3.70;99.90;;;;;;6185682;23;20162;-82
2021/03/07 03:47:54;;;;;;;156.48;147.10;;;-3.70;99.90;;;;;;6195280;23;20229;-82
2021/03/07 03:50:23;;;;;;;149.38;139.90;;;-3.70;99.90;;;;;;6185327;23;20633;-82
2021/03/07 03:53:02;;;;;;;153.68;144.52;;;-3.80;99.90;;;;;;6184336;23;20205;-83
2021/03/07 03:55:30;;;;;;;162.38;152.02;;;-3.80;99.90;;;;;;6195428;23;20618;-82
2021/03/07 03:58:03;;;;;;;150.43;140.73;;;-3.90;99.90;;;;;;6195257;23;20161;-82
2021/03/07 04:00:32;;;;;;;155.02;145.63;;;-3.80;99.90;;;;;;6195298;23;20173;-82
2021/03/07 04:03:01;;;;;;;162.27;152.65;;;-4.00;99.90;;;;;;6185636;23;20517;-82
2021/03/07 04:05:29;;;;;;;151.02;141.38;;;-4.00;99.90;;;;;;6194734;23;20488;-82
2021/03/07 04:08:01;;;;;;;147.13;137.73;;;-4.00;99.90;;;;;;6185211;23;20189;-82
2021/03/07 04:10:29;;;;;;;146.43;137.07;;;-4.10;99.90;;;;;;6195704;23;20158;-82
2021/03/07 04:13:01;;;;;;;154.43;144.98;;;-4.10;99.90;;;;;;6195173;23;20188;-82
2021/03/07 04:15:42;;;;;;;158.35;148.65;;;-4.00;99.90;;;;;;6195163;23;20232;-82
2021/03/07 04:18:24;;;;;;;156.35;146.50;;;-4.00;99.90;;;;;;6195400;23;20184;-83
2021/03/07 04:20:53;;;;;;;152.27;142.52;;;-4.10;99.90;;;;;;6184182;23;20362;-82
2021/03/07 04:23:20;;;;;;;151.18;141.18;;;-4.00;99.90;;;;;;6185347;23;20154;-82
2021/03/07 04:25:48;;;;;;;152.02;142.10;;;-4.00;99.90;;;;;;6185044;23;20158;-82
2021/03/07 04:28:16;;;;;;;172.88;161.85;;;-4.00;99.90;;;;;;6185330;23;20237;-82
2021/03/07 04:30:43;;;;;;;164.35;154.05;;;-4.10;99.90;;;;;;6195367;23;20182;-82
2021/03/07 04:33:09;;;;;;;177.55;166.27;;;-3.80;99.90;;;;;;6185022;23;20615;-82
2021/03/07 04:35:38;;;;;;;183.70;172.30;;;-3.80;99.90;;;;;;6183526;23;20212;-81
2021/03/07 04:38:07;;;;;;;196.88;184.82;;;-3.60;99.90;;;;;;6184991;23;20196;-82
2021/03/07 04:40:35;;;;;;;183.32;171.40;;;-3.50;99.90;;;;;;6185152;23;20165;-82
2021/03/07 04:43:05;;;;;;;185.82;173.80;;;-3.50;99.90;;;;;;6185482;23;20162;-81
2021/03/07 04:45:38;;;;;;;175.23;164.32;;;-3.40;99.90;;;;;;6185549;23;20192;-81
2021/03/07 04:48:07;;;;;;;165.45;154.45;;;-3.50;99.90;;;;;;6185461;23;20188;-82
2021/03/07 04:50:38;;;;;;;165.50;153.80;;;-3.70;99.90;;;;;;6193826;23;20185;-81
2021/03/07 04:53:07;;;;;;;169.45;158.50;;;-3.70;99.90;;;;;;6118378;23;20169;-82
2021/03/07 04:56:12;;;;;;;;;;;;;;;;;;;;;
2021/03/07 04:58:39;;;;;;;161.63;151.02;;;-4.00;99.90;;;;;;6185612;23;20232;-83
2021/03/07 05:01:06;;;;;;;160.00;148.73;;;-4.00;99.90;;;;;;6184667;23;20252;-82
2021/03/07 05:03:51;;;;;;;163.27;152.38;;;-4.10;99.90;;;;;;6195555;23;20257;-82
2021/03/07 05:06:40;;;;;;;;;;;;;;;;;;;;;
2021/03/07 05:12:04;;;;;;;167.65;156.38;;;-4.00;99.90;;;;;;6183706;23;20605;-82
2021/03/07 05:14:30;;;;;;;160.15;149.10;;;-4.00;99.90;;;;;;6187201;23;20190;-82
2021/03/07 05:17:00;;;;;;;158.30;147.82;;;-4.00;99.90;;;;;;6187439;23;20161;-82
2021/03/07 05:19:30;;;;;;;163.85;152.18;;;-4.00;99.90;;;;;;6196815;23;20189;-82
2021/03/07 05:21:56;;;;;;;162.00;150.80;;;-4.20;99.90;;;;;;6195630;23;20158;-82
2021/03/07 05:24:26;;;;;;;158.38;146.93;;;-4.30;99.90;;;;;;6196730;23;20169;-83
2021/03/07 05:26:53;;;;;;;157.48;145.98;;;-4.30;99.90;;;;;;6197467;23;20296;-81
2021/03/07 05:29:21;;;;;;;154.80;144.15;;;-4.20;99.90;;;;;;6186687;23;20165;-82
2021/03/07 05:31:54;;;;;;;153.15;142.60;;;-4.30;99.90;;;;;;6196818;23;20154;-82
2021/03/07 05:34:27;;;;;;;149.90;139.05;;;-4.30;99.90;;;;;;6196595;23;20178;-82
2021/03/07 05:36:55;;;;;;;148.80;137.80;;;-4.50;99.90;;;;;;6187028;23;20189;-81
2021/03/07 05:39:25;;;;;;;154.30;142.98;;;-4.60;99.90;;;;;;6186542;23;20661;-82
2021/03/07 05:41:51;;;;;;;155.57;145.10;;;-4.70;99.90;;;;;;6196432;23;20540;-82
2021/03/07 05:45:08;;;;;;;151.85;141.57;;;-4.70;99.90;;;;;;6186775;23;20541;-83
2021/03/07 05:47:42;;;;;;;158.63;147.13;;;-4.60;99.90;;;;;;6134714;23;20162;-82
2021/03/07 05:50:10;;;;;;;155.60;144.40;;;-4.70;99.90;;;;;;6186863;23;20487;-82
2021/03/07 05:52:39;;;;;;;159.98;149.20;;;-4.70;99.90;;;;;;6185089;23;20166;-82
2021/03/07 05:55:24;;;;;;;155.43;144.77;;;-4.60;99.90;;;;;;6186254;23;20562;-81
2021/03/07 05:57:51;;;;;;;156.43;145.82;;;-4.70;99.90;;;;;;6196748;23;20212;-82
2021/03/07 06:00:30;;;;;;;;;;;;;;;;;;;;;
2021/03/07 06:03:06;;;;;;;158.68;147.35;;;-4.70;99.90;;;;;;6186284;23;20169;-82
2021/03/07 06:05:41;;;;;;;156.77;146.00;;;-4.70;99.90;;;;;;6184666;23;20620;-83
2021/03/07 06:08:08;;;;;;;149.88;138.85;;;-4.60;99.90;;;;;;6186349;23;20154;-82
2021/03/07 06:10:39;;;;;;;152.63;141.15;;;-4.70;99.90;;;;;;6186674;23;20158;-83
2021/03/07 06:13:12;;;;;;;156.38;144.27;;;-4.70;99.90;;;;;;6196613;23;20158;-82
2021/03/07 06:15:39;;;;;;;154.57;144.13;;;-4.70;99.90;;;;;;6196441;23;20158;-82
2021/03/07 06:18:21;;;;;;;150.50;139.25;;;-4.80;99.90;;;;;;6196139;23;20661;-83
2021/03/07 06:21:28;;;;;;;152.43;140.98;;;-4.80;99.90;;;;;;6185060;23;20173;-82
2021/03/07 06:23:54;;;;;;;153.38;140.63;;;-4.60;99.90;;;;;;6157274;23;20252;-82
2021/03/07 06:26:21;;;;;;;149.25;138.30;;;-4.70;99.90;;;;;;6186301;23;20611;-82
2021/03/07 06:29:05;;;;;;;158.65;145.68;;;-4.80;99.90;;;;;;6195750;23;20170;-82
2021/03/07 06:31:33;;;;;;;159.88;147.80;;;-4.60;99.90;;;;;;6196127;23;20170;-82
2021/03/07 06:36:49;;;;;;;157.13;144.38;;;-4.10;99.90;;;;;;6180672;23;20197;-82
2021/03/07 06:39:16;;;;;;;159.75;147.25;;;-4.00;99.90;;;;;;6186401;23;20201;-84
2021/03/07 06:41:46;;;;;;;156.57;144.90;;;-3.80;99.90;;;;;;6186485;23;20154;-83
2021/03/07 06:44:18;;;;;;;158.48;146.35;;;-3.90;99.90;;;;;;6196040;23;20602;-83
2021/03/07 06:46:47;;;;;;;160.57;148.02;;;-3.90;99.90;;;;;;6196256;23;20154;-82
2021/03/07 06:49:25;;;;;;;159.10;147.23;;;-3.80;99.90;;;;;;6185918;23;20162;-82
2021/03/07 06:52:14;;;;;;;158.73;146.82;;;-3.70;99.90;;;;;;6185126;23;20158;-84
2021/03/07 06:58:28;;;;;;;;;;;;;;;;;;;;;
2021/03/07 07:00:57;;;;;;;168.65;156.25;;;-3.20;99.90;;;;;;5996325;23;20184;-83
2021/03/07 07:03:35;;;;;;;;;;;;;;;;;;;;;
2021/03/07 07:06:03;;;;;;;168.65;155.88;;;-3.30;99.90;;;;;;6154656;23;20170;-82
2021/03/07 07:12:08;;;;;;;171.77;158.63;;;-3.40;99.90;;;;;;6064330;23;20177;-83
2021/03/07 07:22:12;;;;;;;;;;;;;;;;;;;;;
2021/03/07 07:28:58;;;;;;;;;;;;;;;;;;;;;
2021/03/07 07:38:39;;;;;;;189.18;176.48;;;-2.70;99.90;;;;;;6011685;23;20199;-82
2021/03/07 07:41:30;;;;;;;193.38;179.43;;;-2.70;99.90;;;;;;6068646;23;20633;-84
2021/03/07 07:44:41;;;;;;;195.43;181.02;;;-2.50;99.90;;;;;;6185324;23;20158;-83
2021/03/07 07:50:55;;;;;;;193.40;180.00;;;-2.40;99.90;;;;;;5825482;24;20176;-83
2021/03/07 07:54:10;;;;;;;;;;;;;;;;;;;;;
2021/03/07 07:56:47;;;;;;;215.68;201.32;;;-2.10;99.90;;;;;;5950460;24;20250;-83
2021/03/07 07:59:15;;;;;;;241.43;226.55;;;-1.80;99.90;;;;;;6164310;23;20204;-83
2021/03/07 08:02:21;;;;;;;;;;;;;;;;;;;;;
2021/03/07 08:05:31;;;;;;;258.23;242.63;;;-1.40;99.90;;;;;;6171514;23;20201;-83
2021/03/07 08:08:49;;;;;;;269.92;254.35;;;-1.30;99.90;;;;;;6195421;23;20220;-84
2021/03/07 08:31:35;;;;;;;302.05;286.42;;;-0.50;99.90;;;;;;5918031;24;20178;-83
2021/03/07 08:34:31;;;;;;;294.48;279.77;;;-0.50;99.90;;;;;;5965828;23;20181;-82
2021/03/07 08:37:03;;;;;;;286.90;272.55;;;-0.50;99.90;;;;;;6004104;23;20173;-83
2021/03/07 08:39:32;;;;;;;281.77;268.48;;;-0.30;99.90;;;;;;6005233;23;20209;-82
2021/03/07 08:42:07;;;;;;;277.05;261.92;;;-0.20;99.90;;;;;;6005624;23;20159;-82
2021/03/07 08:44:39;;;;;;;281.00;266.75;;;-0.10;99.90;;;;;;6133424;23;20169;-82
2021/03/07 08:47:08;;;;;;;276.00;262.45;;;0.10;99.90;;;;;;6195669;23;20184;-82
2021/03/07 08:49:44;;;;;;;246.52;234.27;;;0.20;99.90;;;;;;6185412;23;20162;-82
2021/03/07 08:52:17;;;;;;;235.73;224.27;;;0.40;99.90;;;;;;6184438;23;20154;-82
2021/03/07 08:54:46;;;;;;;194.63;184.43;;;0.60;99.90;;;;;;6195637;23;20405;-82
2021/03/07 08:57:21;;;;;;;165.20;156.13;;;0.80;99.90;;;;;;6195415;23;20154;-82
2021/03/07 08:59:49;;;;;;;87.57;80.97;;;1.00;99.90;;;;;;6195173;23;20436;-83
2021/03/07 09:02:16;;;;;;;85.70;79.70;;;1.20;99.90;;;;;;6185427;23;20489;-79
2021/03/07 09:04:44;;;;;;;47.03;42.53;;;1.40;99.90;;;;;;6184755;23;20409;-81
2021/03/07 09:07:12;;;;;;;35.77;29.13;;;1.70;99.90;;;;;;6193512;23;20413;-81
2021/03/07 09:09:43;;;;;;;38.27;21.63;;;1.80;99.90;;;;;;6184842;23;20401;-81
2021/03/07 09:12:10;;;;;;;31.13;19.90;;;2.20;99.90;;;;;;6185044;23;20401;-81
2021/03/07 09:14:38;;;;;;;25.77;18.37;;;2.40;99.90;;;;;;6185095;23;21030;-82
2021/03/07 09:17:08;;;;;;;27.23;19.10;;;2.80;99.90;;;;;;6194384;23;20467;-82
2021/03/07 09:19:36;;;;;;;28.20;17.00;;;3.20;99.90;;;;;;6194906;23;20523;-80
2021/03/07 09:22:23;;;;;;;21.30;15.30;;;3.50;99.90;;;;;;6183454;23;20405;-81
2021/03/07 09:24:58;;;;;;;21.87;15.23;;;3.90;99.90;;;;;;6184679;23;20447;-82
2021/03/07 09:27:26;;;;;;;24.13;16.97;;;3.90;95.40;;;;;;6185223;23;20529;-82
2021/03/07 09:29:55;;;;;;;21.53;14.00;;;4.30;99.90;;;;;;6185025;23;20405;-79
2021/03/07 09:32:26;;;;;;;21.60;13.10;;;4.40;64.30;;;;;;6185524;23;20393;-79
2021/03/07 09:34:53;;;;;;;20.47;14.00;;;4.50;62.90;;;;;;6185106;23;20484;-79
2021/03/07 09:37:20;;;;;;;19.10;12.73;;;4.90;71.60;;;;;;6183531;23;20428;-79
2021/03/07 09:39:48;;;;;;;18.00;10.13;;;4.90;42.70;;;;;;6184818;23;20564;-79
2021/03/07 09:42:14;;;;;;;18.43;10.00;;;5.10;30.70;;;;;;6194375;23;20409;-79
2021/03/07 09:44:41;;;;;;;14.43;8.90;;;5.20;29.90;;;;;;6186087;23;20917;-79
2021/03/07 09:47:08;;;;;;;15.60;9.93;;;5.30;19.10;;;;;;6196525;23;20420;-80
2021/03/07 09:49:35;;;;;;;19.63;9.30;;;5.90;20.80;;;;;;6187238;23;20713;-80
2021/03/07 09:52:03;;;;;;;14.17;9.23;;;6.20;15.20;;;;;;6185170;23;20433;-81
2021/03/07 09:54:31;;;;;;;14.23;8.63;;;6.80;18.70;;;;;;6196672;23;20409;-80
2021/03/07 09:57:18;;;;;;;18.87;9.20;;;7.20;11.60;;;;;;6195661;23;20444;-81
2021/03/07 09:59:52;;;;;;;14.57;7.73;;;6.70;8.80;;;;;;6186634;23;20429;-81
2021/03/07 10:02:46;;;;;;;;;;;;;;;;;;;;;
2021/03/07 10:05:25;;;;;;;20.60;10.40;;;6.30;10.80;;;;;;6172951;23;20401;-81
2021/03/07 10:11:40;;;;;;;22.17;9.97;;;6.40;11.70;;;;;;6196426;23;20783;-81
2021/03/07 10:14:11;;;;;;;17.33;9.70;;;6.50;14.90;;;;;;6182841;23;20436;-81
2021/03/07 10:16:57;;;;;;;22.57;11.30;;;6.40;11.30;;;;;;6186313;23;21174;-81
2021/03/07 10:19:34;;;;;;;20.60;13.97;;;6.40;15.30;;;;;;6197887;23;20440;-81
2021/03/07 10:22:09;;;;;;;20.13;9.80;;;6.30;17.20;;;;;;6185328;23;20735;-81
2021/03/07 10:24:45;;;;;;;16.70;9.00;;;6.70;11.60;;;;;;6196212;23;20400;-81
2021/03/07 10:27:19;;;;;;;15.07;6.63;;;6.50;8.60;;;;;;6188710;23;20484;-80
2021/03/07 10:29:55;;;;;;;17.73;9.67;;;6.50;8.60;;;;;;6186090;23;20641;-81
2021/03/07 10:32:45;;;;;;;17.97;11.27;;;6.50;11.30;;;;;;6186190;23;20412;-82
2021/03/07 10:35:34;;;;;;;16.20;8.40;;;6.60;11.00;;;;;;6149251;23;20924;-80
2021/03/07 10:38:27;;;;;;;17.10;10.23;;;6.80;11.10;;;;;;6196008;23;20524;-81
2021/03/07 10:47:58;;;;;;;;;;;;;;;;;;;;;
2021/03/07 10:50:24;;;;;;;20.03;10.73;;;7.60;11.70;;;;;;6037573;23;20475;-80
2021/03/07 10:53:00;;;;;;;16.50;9.30;;;7.60;10.80;;;;;;6184850;23;20402;-81
2021/03/07 10:55:34;;;;;;;16.50;8.47;;;7.80;9.80;;;;;;6186068;23;20401;-81
2021/03/07 10:58:03;;;;;;;23.73;12.03;;;7.40;9.40;;;;;;6186386;23;20497;-82
2021/03/07 11:00:30;;;;;;;18.67;11.00;;;7.80;11.80;;;;;;6196168;23;20416;-79
2021/03/07 11:02:57;;;;;;;19.00;11.00;;;8.10;8.50;;;;;;6195380;23;20876;-81
2021/03/07 11:05:41;;;;;;;18.70;12.40;;;8.70;7.10;;;;;;6186131;23;20402;-82
2021/03/07 11:08:14;;;;;;;18.80;10.73;;;9.20;7.30;;;;;;6185186;23;20726;-81
2021/03/07 11:10:43;;;;;;;16.50;10.53;;;8.50;7.10;;;;;;6186187;23;20473;-81
2021/03/07 11:13:20;;;;;;;22.53;11.87;;;9.20;5.90;;;;;;6185157;23;20402;-81
2021/03/07 11:15:57;;;;;;;22.90;13.10;;;8.80;9.00;;;;;;6185708;23;20393;-82
2021/03/07 11:18:44;;;;;;;27.53;12.13;;;9.60;5.50;;;;;;6185935;23;20488;-81
2021/03/07 11:21:19;;;;;;;20.67;12.17;;;9.80;2.90;;;;;;6184313;23;20967;-81
2021/03/07 11:23:45;;;;;;;17.93;8.87;;;9.70;3.40;;;;;;6186019;23;20406;-81
2021/03/07 11:26:25;;;;;;;19.80;11.57;;;9.70;3.80;;;;;;6185799;23;20408;-81
2021/03/07 11:29:02;;;;;;;19.67;11.37;;;10.10;2.80;;;;;;6185330;23;20881;-81
2021/03/07 11:31:33;;;;;;;17.70;10.40;;;9.90;1.00;;;;;;6185643;23;20900;-81
2021/03/07 11:34:30;;;;;;;19.30;9.80;;;10.30;1.00;;;;;;6185737;23;20409;-81
2021/03/07 11:37:04;;;;;;;18.10;8.73;;;9.70;2.20;;;;;;6105855;23;20409;-81
2021/03/07 11:39:35;;;;;;;18.80;11.70;;;9.20;3.70;;;;;;6185314;23;20441;-82
2021/03/07 11:45:53;;;;;;;21.37;9.13;;;9.20;1.00;;;;;;6185060;23;20405;-82
2021/03/07 11:48:36;;;;;;;16.80;9.90;;;9.10;1.00;;;;;;6069931;23;20423;-83
2021/03/07 11:51:06;;;;;;;14.90;7.60;;;9.00;1.00;;;;;;6184002;23;20472;-83
2021/03/07 11:53:43;;;;;;;21.70;11.10;;;8.90;1.00;;;;;;6195278;23;20476;-81
2021/03/07 11:56:09;;;;;;;16.57;8.37;;;9.50;1.00;;;;;;6194565;23;20467;-82
2021/03/07 11:58:36;;;;;;;20.83;10.10;;;9.70;1.00;;;;;;6198461;23;20480;-79
2021/03/07 12:01:08;;;;;;;18.37;7.00;;;10.20;1.00;;;;;;6185610;23;20398;-81
2021/03/07 12:03:41;;;;;;;16.37;8.07;;;9.70;1.00;;;;;;6194965;23;20416;-79
2021/03/07 12:06:08;;;;;;;17.73;10.20;;;9.30;1.00;;;;;;6183868;23;20401;-79
2021/03/07 12:08:35;;;;;;;19.20;11.60;;;9.30;1.00;;;;;;6185511;23;20715;-80
2021/03/07 12:11:03;;;;;;;21.07;9.57;;;9.50;1.00;;;;;;6195142;23;20469;-80
2021/03/07 12:13:31;;;;;;;18.63;9.97;;;9.50;1.00;;;;;;6195750;23;20406;-80
2021/03/07 12:15:57;;;;;;;19.33;10.07;;;9.70;1.00;;;;;;6185631;23;20437;-80
2021/03/07 12:18:24;;;;;;;18.07;12.10;;;9.50;1.00;;;;;;6194954;23;20409;-81
2021/03/07 12:20:56;;;;;;;17.60;9.40;;;9.90;1.00;;;;;;6184173;23;20411;-80
2021/03/07 12:23:22;;;;;;;16.70;8.73;;;10.00;1.00;;;;;;6184321;23;20397;-79
2021/03/07 12:25:50;;;;;;;19.20;13.10;;;10.00;1.00;;;;;;6180892;23;20758;-80
2021/03/07 12:28:16;;;;;;;17.03;11.97;;;10.10;1.00;;;;;;6183238;23;20461;-81
2021/03/07 12:30:44;;;;;;;19.67;13.57;;;10.10;1.00;;;;;;6183258;23;20434;-80
2021/03/07 12:33:10;;;;;;;20.33;14.20;;;9.30;1.00;;;;;;6182988;23;21000;-79
2021/03/07 12:35:39;;;;;;;18.87;12.53;;;9.00;1.00;;;;;;6183971;23;20429;-80
2021/03/07 12:38:12;;;;;;;19.30;13.40;;;9.10;1.00;;;;;;6187000;23;20456;-81
2021/03/07 12:40:43;;;;;;;20.87;11.63;;;9.30;1.00;;;;;;6185254;23;20397;-80
2021/03/07 12:43:13;;;;;;;21.83;12.07;;;9.40;1.00;;;;;;6195500;23;20412;-80
2021/03/07 12:45:41;;;;;;;20.53;14.90;;;9.70;1.00;;;;;;6195292;23;20443;-80
2021/03/07 12:48:09;;;;;;;20.33;12.97;;;9.90;1.00;;;;;;6194796;23;20484;-81
2021/03/07 12:50:41;;;;;;;20.00;12.13;;;10.30;1.00;;;;;;6194105;23;20955;-81
2021/03/07 12:53:07;;;;;;;20.13;11.33;;;10.20;1.00;;;;;;6185467;23;20452;-80
2021/03/07 12:55:34;;;;;;;20.47;13.17;;;10.10;1.00;;;;;;6194912;23;20424;-81
2021/03/07 12:58:00;;;;;;;18.20;10.30;;;10.50;1.00;;;;;;6185369;23;20456;-81
2021/03/07 13:00:28;;;;;;;19.80;12.00;;;10.60;1.00;;;;;;6185335;23;20397;-80
2021/03/07 13:02:54;;;;;;;16.63;10.07;;;10.90;1.00;;;;;;6195099;23;20418;-81
2021/03/07 13:05:21;;;;;;;19.67;10.17;;;10.10;1.00;;;;;;6195049;23;20409;-81
2021/03/07 13:07:47;;;;;;;21.27;11.90;;;9.60;1.00;;;;;;6193755;23;20469;-80
2021/03/07 13:10:14;;;;;;;17.87;12.63;;;9.40;1.00;;;;;;6184926;23;20444;-81
2021/03/07 13:12:41;;;;;;;21.90;11.97;;;9.60;1.00;;;;;;6185494;23;20401;-81
2021/03/07 13:15:09;;;;;;;18.70;9.40;;;9.30;1.00;;;;;;6195012;23;20409;-81
2021/03/07 13:17:36;;;;;;;18.80;11.30;;;9.50;1.00;;;;;;6185084;23;20435;-81
2021/03/07 13:20:04;;;;;;;19.23;12.17;;;9.10;1.00;;;;;;6185488;23;20787;-80
2021/03/07 13:22:30;;;;;;;19.27;11.10;;;9.00;1.00;;;;;;6183849;23;20789;-81
2021/03/07 13:24:57;;;;;;;17.50;13.13;;;9.10;1.00;;;;;;6185507;23;20485;-80
2021/03/07 13:27:23;;;;;;;15.97;8.60;;;9.10;1.00;;;;;;6185455;23;20535;-80
2021/03/07 13:29:50;;;;;;;19.83;12.10;;;9.40;1.00;;;;;;6185119;23;20461;-80
2021/03/07 13:32:16;;;;;;;19.67;11.70;;;9.50;1.00;;;;;;6186946;23;20436;-80
2021/03/07 13:34:44;;;;;;;18.77;11.60;;;9.80;1.00;;;;;;6187263;23;20464;-81
2021/03/07 13:37:10;;;;;;;19.40;13.67;;;9.70;1.00;;;;;;6195263;23;20892;-80
2021/03/07 13:39:37;;;;;;;21.03;13.60;;;10.20;1.00;;;;;;6187044;23;20441;-81
2021/03/07 13:42:06;;;;;;;24.27;13.27;;;9.80;1.00;;;;;;6196700;23;20406;-81
2021/03/07 13:45:20;;;;;;;;;;;;;;;;;;;;;
2021/03/07 13:47:48;;;;;;;29.60;18.40;;;9.10;1.00;;;;;;6185762;23;20409;-80
2021/03/07 13:50:15;;;;;;;19.33;10.93;;;8.40;1.00;;;;;;6195826;23;20440;-80
2021/03/07 13:52:41;;;;;;;20.10;11.60;;;8.20;1.00;;;;;;6185093;23;20401;-79
2021/03/07 13:55:09;;;;;;;24.57;17.00;;;8.00;1.00;;;;;;6186414;23;20432;-79
2021/03/07 13:57:35;;;;;;;25.93;14.57;;;7.70;1.00;;;;;;6196322;23;20448;-80
2021/03/07 14:00:02;;;;;;;27.33;18.93;;;7.80;1.00;;;;;;6197051;23;20405;-79
2021/03/07 14:02:28;;;;;;;25.23;15.23;;;7.50;1.00;;;;;;6178546;23;20401;-79
2021/03/07 14:04:55;;;;;;;23.40;14.30;;;7.70;1.30;;;;;;6184549;23;20417;-79
2021/03/07 14:07:22;;;;;;;22.50;13.83;;;7.60;1.00;;;;;;6180917;23;20410;-80
2021/03/07 14:09:48;;;;;;;27.20;16.93;;;7.60;1.00;;;;;;6194330;23;21003;-80
2021/03/07 14:12:15;;;;;;;24.90;15.90;;;7.60;1.00;;;;;;6184598;23;20492;-80
2021/03/07 14:14:42;;;;;;;23.77;14.37;;;7.50;1.00;;;;;;6194909;23;20413;-80
2021/03/07 14:17:11;;;;;;;26.60;17.83;;;7.70;1.00;;;;;;6195000;23;20444;-80